sensor_id;sensor_type;location;lat;lon;timestamp;pressure;altitude;pressure_sealevel;temperature;humidity
54122;BME280;40029;58.708;50.190;2022-07-05T00:02:20;100159.44;;;12.63;51.73
54122;BME280;40029;58.708;50.190;2022-07-05T00:04:51;100163.88;;;12.61;51.53
54122;BME280;40029;58.708;50.190;2022-07-05T00:07:22;100159.75;;;12.56;51.63
54122;BME280;40029;58.708;50.190;2022-07-05T00:09:55;100148.69;;;12.49;51.46
54122;BME280;40029;58.708;50.190;2022-07-05T00:12:30;100167.34;;;12.62;51.86
54122;BME280;40029;58.708;50.190;2022-07-05T00:15:03;100169.81;;;12.65;51.38
54122;BME280;40029;58.708;50.190;2022-07-05T00:17:34;100168.94;;;12.66;51.19
54122;BME280;40029;58.708;50.190;2022-07-05T00:20:05;100168.06;;;12.65;51.55
54122;BME280;40029;58.708;50.190;2022-07-05T00:22:37;100162.91;;;12.64;51.64
54122;BME280;40029;58.708;50.190;2022-07-05T00:25:08;100107.59;;;12.31;50.72
54122;BME280;40029;58.708;50.190;2022-07-05T00:27:39;100164.41;;;12.69;51.31
54122;BME280;40029;58.708;50.190;2022-07-05T00:30:11;100177.25;;;12.75;50.72
54122;BME280;40029;58.708;50.190;2022-07-05T00:32:42;100176.34;;;12.76;50.80
54122;BME280;40029;58.708;50.190;2022-07-05T00:35:13;100178.03;;;12.77;50.81
54122;BME280;40029;58.708;50.190;2022-07-05T00:37:44;100176.34;;;12.76;50.71
54122;BME280;40029;58.708;50.190;2022-07-05T00:40:15;100186.53;;;12.83;50.74
54122;BME280;40029;58.708;50.190;2022-07-05T00:42:46;100122.91;;;12.40;51.00
54122;BME280;40029;58.708;50.190;2022-07-05T00:45:18;100178.88;;;12.78;51.40
54122;BME280;40029;58.708;50.190;2022-07-05T00:47:49;100189.84;;;12.88;51.35
54122;BME280;40029;58.708;50.190;2022-07-05T00:50:20;100183.69;;;12.89;51.14
54122;BME280;40029;58.708;50.190;2022-07-05T00:52:53;100185.38;;;12.90;51.71
54122;BME280;40029;58.708;50.190;2022-07-05T00:55:25;100183.88;;;12.84;51.40
54122;BME280;40029;58.708;50.190;2022-07-05T00:57:56;100177.78;;;12.84;51.53
54122;BME280;40029;58.708;50.190;2022-07-05T01:00:27;100185.38;;;12.90;51.37
54122;BME280;40029;58.708;50.190;2022-07-05T01:02:58;100193.09;;;12.93;51.54
54122;BME280;40029;58.708;50.190;2022-07-05T01:05:29;100145.44;;;12.64;51.80
54122;BME280;40029;58.708;50.190;2022-07-05T01:08:02;100195.47;;;12.99;51.36
54122;BME280;40029;58.708;50.190;2022-07-05T01:10:33;100188.66;;;12.95;51.58
54122;BME280;40029;58.708;50.190;2022-07-05T01:13:04;100183.38;;;12.96;51.78
54122;BME280;40029;58.708;50.190;2022-07-05T01:15:35;100195.41;;;13.00;52.37
54122;BME280;40029;58.708;50.190;2022-07-05T01:18:07;100194.19;;;13.09;52.24
54122;BME280;40029;58.708;50.190;2022-07-05T01:20:39;100189.72;;;13.11;51.71
54122;BME280;40029;58.708;50.190;2022-07-05T01:23:11;100192.41;;;13.10;51.56
54122;BME280;40029;58.708;50.190;2022-07-05T01:25:43;100190.72;;;13.09;52.10
54122;BME280;40029;58.708;50.190;2022-07-05T01:28:15;100190.53;;;13.13;51.87
54122;BME280;40029;58.708;50.190;2022-07-05T01:30:47;100191.94;;;13.20;52.15
54122;BME280;40029;58.708;50.190;2022-07-05T01:33:18;100200.44;;;13.27;51.64
54122;BME280;40029;58.708;50.190;2022-07-05T01:35:49;100195.00;;;13.32;51.17
54122;BME280;40029;58.708;50.190;2022-07-05T01:38:20;100194.38;;;13.47;51.00
54122;BME280;40029;58.708;50.190;2022-07-05T01:40:51;100159.09;;;13.35;51.03
54122;BME280;40029;58.708;50.190;2022-07-05T01:43:23;100202.78;;;13.74;50.73
54122;BME280;40029;58.708;50.190;2022-07-05T01:45:56;100202.94;;;13.90;50.35
54122;BME280;40029;58.708;50.190;2022-07-05T01:48:29;100199.69;;;14.04;50.23
54122;BME280;40029;58.708;50.190;2022-07-05T01:51:07;100198.22;;;14.36;49.55
54122;BME280;40029;58.708;50.190;2022-07-05T01:53:41;100190.78;;;14.26;49.36
54122;BME280;40029;58.708;50.190;2022-07-05T01:56:13;100197.13;;;14.40;49.32
54122;BME280;40029;58.708;50.190;2022-07-05T01:58:45;100200.22;;;14.49;49.44
54122;BME280;40029;58.708;50.190;2022-07-05T02:01:34;100196.59;;;14.71;49.47
54122;BME280;40029;58.708;50.190;2022-07-05T02:04:08;100188.34;;;14.79;49.23
54122;BME280;40029;58.708;50.190;2022-07-05T02:06:39;100196.69;;;14.87;48.91
54122;BME280;40029;58.708;50.190;2022-07-05T02:09:12;100196.06;;;14.99;48.86
54122;BME280;40029;58.708;50.190;2022-07-05T02:11:43;100177.88;;;14.96;48.36
54122;BME280;40029;58.708;50.190;2022-07-05T02:14:15;100154.19;;;14.97;48.08
54122;BME280;40029;58.708;50.190;2022-07-05T02:16:46;100196.16;;;15.32;47.89
54122;BME280;40029;58.708;50.190;2022-07-05T02:19:17;100170.94;;;15.30;47.50
54122;BME280;40029;58.708;50.190;2022-07-05T02:21:49;100181.19;;;15.52;47.42
54122;BME280;40029;58.708;50.190;2022-07-05T02:24:23;100188.22;;;15.68;47.17
54122;BME280;40029;58.708;50.190;2022-07-05T02:27:03;100175.78;;;15.72;46.72
54122;BME280;40029;58.708;50.190;2022-07-05T02:29:34;100185.03;;;15.95;46.63
54122;BME280;40029;58.708;50.190;2022-07-05T02:32:07;100185.81;;;16.13;45.70
54122;BME280;40029;58.708;50.190;2022-07-05T02:34:38;100175.34;;;16.29;45.23
54122;BME280;40029;58.708;50.190;2022-07-05T02:37:09;100175.81;;;16.51;44.73
54122;BME280;40029;58.708;50.190;2022-07-05T02:39:40;100174.81;;;16.69;43.74
54122;BME280;40029;58.708;50.190;2022-07-05T02:42:13;100172.00;;;16.88;43.63
54122;BME280;40029;58.708;50.190;2022-07-05T02:44:44;100170.91;;;17.07;43.07
54122;BME280;40029;58.708;50.190;2022-07-05T02:47:16;100175.28;;;17.22;42.49
54122;BME280;40029;58.708;50.190;2022-07-05T02:49:47;100178.06;;;17.35;41.56
54122;BME280;40029;58.708;50.190;2022-07-05T02:52:18;100173.06;;;17.44;40.90
54122;BME280;40029;58.708;50.190;2022-07-05T02:54:49;100187.59;;;17.66;40.51
54122;BME280;40029;58.708;50.190;2022-07-05T02:57:21;100182.09;;;17.85;39.98
54122;BME280;40029;58.708;50.190;2022-07-05T02:59:56;100180.47;;;17.96;39.24
54122;BME280;40029;58.708;50.190;2022-07-05T03:02:30;100185.63;;;18.12;38.97
54122;BME280;40029;58.708;50.190;2022-07-05T03:05:03;100163.59;;;18.13;38.78
54122;BME280;40029;58.708;50.190;2022-07-05T03:07:34;100188.22;;;18.41;38.28
54122;BME280;40029;58.708;50.190;2022-07-05T03:10:06;100190.81;;;18.55;37.67
54122;BME280;40029;58.708;50.190;2022-07-05T03:12:38;100188.34;;;18.66;37.06
54122;BME280;40029;58.708;50.190;2022-07-05T03:15:13;100191.44;;;19.00;35.53
54122;BME280;40029;58.708;50.190;2022-07-05T03:17:44;100196.19;;;18.95;35.03
54122;BME280;40029;58.708;50.190;2022-07-05T03:20:17;100164.47;;;18.82;33.80
54122;BME280;40029;58.708;50.190;2022-07-05T03:22:50;100161.53;;;18.87;33.50
54122;BME280;40029;58.708;50.190;2022-07-05T03:25:25;100195.44;;;19.33;32.70
54122;BME280;40029;58.708;50.190;2022-07-05T03:27:56;100189.69;;;19.13;32.87
54122;BME280;40029;58.708;50.190;2022-07-05T03:30:28;100199.81;;;19.19;32.05
54122;BME280;40029;58.708;50.190;2022-07-05T03:32:59;100171.00;;;19.16;31.51
54122;BME280;40029;58.708;50.190;2022-07-05T03:35:33;100191.84;;;19.34;31.45
54122;BME280;40029;58.708;50.190;2022-07-05T03:38:04;100193.53;;;19.35;31.72
54122;BME280;40029;58.708;50.190;2022-07-05T03:40:35;100189.72;;;19.39;31.46
54122;BME280;40029;58.708;50.190;2022-07-05T03:43:06;100189.63;;;19.53;31.46
54122;BME280;40029;58.708;50.190;2022-07-05T03:45:40;100194.31;;;19.62;31.77
54122;BME280;40029;58.708;50.190;2022-07-05T03:48:13;100187.00;;;19.79;31.62
54122;BME280;40029;58.708;50.190;2022-07-05T03:50:44;100186.59;;;19.85;30.97
54122;BME280;40029;58.708;50.190;2022-07-05T03:53:15;100183.09;;;19.97;30.87
54122;BME280;40029;58.708;50.190;2022-07-05T03:55:47;100175.69;;;20.02;31.00
54122;BME280;40029;58.708;50.190;2022-07-05T03:58:18;100185.19;;;20.05;30.67
54122;BME280;40029;58.708;50.190;2022-07-05T04:00:50;100184.94;;;20.20;30.78
54122;BME280;40029;58.708;50.190;2022-07-05T04:03:26;100190.75;;;20.26;31.11
54122;BME280;40029;58.708;50.190;2022-07-05T04:05:57;100200.16;;;20.30;31.14
54122;BME280;40029;58.708;50.190;2022-07-05T04:08:28;100200.44;;;20.38;30.82
54122;BME280;40029;58.708;50.190;2022-07-05T04:11:00;100197.06;;;20.49;30.49
54122;BME280;40029;58.708;50.190;2022-07-05T04:13:32;100194.09;;;20.53;30.96
54122;BME280;40029;58.708;50.190;2022-07-05T04:16:04;100194.25;;;20.63;30.88
54122;BME280;40029;58.708;50.190;2022-07-05T04:18:35;100186.81;;;20.68;30.77
54122;BME280;40029;58.708;50.190;2022-07-05T04:21:06;100195.56;;;20.81;30.55
54122;BME280;40029;58.708;50.190;2022-07-05T04:23:37;100202.31;;;20.85;30.10
54122;BME280;40029;58.708;50.190;2022-07-05T04:26:10;100182.91;;;20.74;29.67
54122;BME280;40029;58.708;50.190;2022-07-05T04:28:46;100165.19;;;20.74;29.49
54122;BME280;40029;58.708;50.190;2022-07-05T04:31:24;100180.06;;;20.88;29.76
54122;BME280;40029;58.708;50.190;2022-07-05T04:33:57;100202.78;;;21.03;28.94
54122;BME280;40029;58.708;50.190;2022-07-05T04:36:32;100178.66;;;20.95;28.32
54122;BME280;40029;58.708;50.190;2022-07-05T04:39:04;100207.38;;;21.12;27.81
54122;BME280;40029;58.708;50.190;2022-07-05T04:41:37;100169.88;;;20.94;28.08
54122;BME280;40029;58.708;50.190;2022-07-05T04:44:10;100206.06;;;21.18;27.59
54122;BME280;40029;58.708;50.190;2022-07-05T04:46:41;100198.69;;;21.34;27.54
54122;BME280;40029;58.708;50.190;2022-07-05T04:49:12;100199.78;;;21.43;27.29
54122;BME280;40029;58.708;50.190;2022-07-05T04:51:43;100198.34;;;21.39;27.07
54122;BME280;40029;58.708;50.190;2022-07-05T04:54:14;100202.44;;;21.43;26.32
54122;BME280;40029;58.708;50.190;2022-07-05T04:56:46;100204.31;;;21.30;26.07
54122;BME280;40029;58.708;50.190;2022-07-05T04:59:16;100177.94;;;21.28;26.00
54122;BME280;40029;58.708;50.190;2022-07-05T05:01:48;100195.47;;;21.53;25.66
54122;BME280;40029;58.708;50.190;2022-07-05T05:04:18;100186.22;;;21.59;25.86
54122;BME280;40029;58.708;50.190;2022-07-05T05:06:49;100175.09;;;21.65;26.05
54122;BME280;40029;58.708;50.190;2022-07-05T05:09:20;100204.41;;;21.75;24.96
54122;BME280;40029;58.708;50.190;2022-07-05T05:11:51;100206.94;;;21.87;24.60
54122;BME280;40029;58.708;50.190;2022-07-05T05:14:23;100208.41;;;22.03;24.79
54122;BME280;40029;58.708;50.190;2022-07-05T05:16:54;100212.63;;;21.94;24.87
54122;BME280;40029;58.708;50.190;2022-07-05T05:19:25;100209.25;;;22.03;24.42
54122;BME280;40029;58.708;50.190;2022-07-05T05:21:56;100212.78;;;22.15;24.30
54122;BME280;40029;58.708;50.190;2022-07-05T05:24:27;100196.50;;;22.19;24.59
54122;BME280;40029;58.708;50.190;2022-07-05T05:26:58;100208.66;;;22.11;24.31
54122;BME280;40029;58.708;50.190;2022-07-05T05:29:29;100211.81;;;22.27;24.14
54122;BME280;40029;58.708;50.190;2022-07-05T05:32:00;100184.66;;;22.24;24.35
54122;BME280;40029;58.708;50.190;2022-07-05T05:34:31;100195.38;;;22.33;24.38
54122;BME280;40029;58.708;50.190;2022-07-05T05:37:02;100191.16;;;22.42;25.31
54122;BME280;40029;58.708;50.190;2022-07-05T05:39:33;100208.00;;;22.63;24.34
54122;BME280;40029;58.708;50.190;2022-07-05T05:42:05;100208.59;;;22.67;24.31
54122;BME280;40029;58.708;50.190;2022-07-05T05:44:36;100204.78;;;22.81;24.06
54122;BME280;40029;58.708;50.190;2022-07-05T05:47:07;100198.78;;;22.79;23.88
54122;BME280;40029;58.708;50.190;2022-07-05T05:49:38;100202.63;;;22.86;24.00
54122;BME280;40029;58.708;50.190;2022-07-05T05:52:09;100191.66;;;22.90;24.02
54122;BME280;40029;58.708;50.190;2022-07-05T05:54:40;100189.91;;;23.01;23.58
54122;BME280;40029;58.708;50.190;2022-07-05T05:57:11;100190.72;;;23.12;23.74
54122;BME280;40029;58.708;50.190;2022-07-05T05:59:42;100193.16;;;23.04;23.67
54122;BME280;40029;58.708;50.190;2022-07-05T06:02:13;100181.06;;;23.11;22.87
54122;BME280;40029;58.708;50.190;2022-07-05T06:04:44;100188.63;;;23.16;22.51
54122;BME280;40029;58.708;50.190;2022-07-05T06:07:14;100171.19;;;23.23;22.38
54122;BME280;40029;58.708;50.190;2022-07-05T06:09:47;100148.63;;;23.17;23.12
54122;BME280;40029;58.708;50.190;2022-07-05T06:12:18;100167.81;;;23.42;23.05
54122;BME280;40029;58.708;50.190;2022-07-05T06:14:49;100174.22;;;23.39;23.03
54122;BME280;40029;58.708;50.190;2022-07-05T06:17:20;100159.31;;;23.48;21.92
54122;BME280;40029;58.708;50.190;2022-07-05T06:19:51;100171.50;;;23.51;21.17
54122;BME280;40029;58.708;50.190;2022-07-05T06:22:22;100173.50;;;23.58;21.70
54122;BME280;40029;58.708;50.190;2022-07-05T06:24:53;100167.44;;;23.67;21.56
54122;BME280;40029;58.708;50.190;2022-07-05T06:27:24;100176.44;;;23.76;22.10
54122;BME280;40029;58.708;50.190;2022-07-05T06:29:55;100156.00;;;23.77;21.62
54122;BME280;40029;58.708;50.190;2022-07-05T06:32:26;100160.94;;;23.91;20.95
54122;BME280;40029;58.708;50.190;2022-07-05T06:34:57;100168.88;;;23.81;19.16
54122;BME280;40029;58.708;50.190;2022-07-05T06:37:43;100162.72;;;23.81;19.64
54122;BME280;40029;58.708;50.190;2022-07-05T06:43:07;100156.03;;;23.86;20.71
54122;BME280;40029;58.708;50.190;2022-07-05T06:46:04;100163.38;;;23.73;20.65
54122;BME280;40029;58.708;50.190;2022-07-05T06:48:35;100110.09;;;23.54;20.74
54122;BME280;40029;58.708;50.190;2022-07-05T06:51:06;100155.50;;;23.92;20.94
54122;BME280;40029;58.708;50.190;2022-07-05T06:53:37;100150.41;;;23.80;19.99
54122;BME280;40029;58.708;50.190;2022-07-05T06:56:08;100155.22;;;23.95;20.48
54122;BME280;40029;58.708;50.190;2022-07-05T06:58:39;100144.84;;;23.92;20.43
54122;BME280;40029;58.708;50.190;2022-07-05T07:01:11;100153.56;;;24.04;19.74
54122;BME280;40029;58.708;50.190;2022-07-05T07:03:42;100117.53;;;23.90;20.27
54122;BME280;40029;58.708;50.190;2022-07-05T07:06:14;100147.41;;;24.04;20.12
54122;BME280;40029;58.708;50.190;2022-07-05T07:08:45;100140.81;;;24.08;19.97
54122;BME280;40029;58.708;50.190;2022-07-05T07:11:34;100135.66;;;24.16;19.99
54122;BME280;40029;58.708;50.190;2022-07-05T07:14:06;100135.72;;;24.26;19.78
54122;BME280;40029;58.708;50.190;2022-07-05T07:16:37;100127.00;;;24.24;19.62
54122;BME280;40029;58.708;50.190;2022-07-05T07:19:08;100128.84;;;24.33;19.19
54122;BME280;40029;58.708;50.190;2022-07-05T07:21:39;100131.22;;;24.36;19.04
54122;BME280;40029;58.708;50.190;2022-07-05T07:24:11;100133.16;;;24.34;18.86
54122;BME280;40029;58.708;50.190;2022-07-05T07:26:42;100126.50;;;24.39;19.11
54122;BME280;40029;58.708;50.190;2022-07-05T07:29:36;100119.78;;;24.55;18.87
54122;BME280;40029;58.708;50.190;2022-07-05T07:32:08;100112.22;;;24.60;18.85
54122;BME280;40029;58.708;50.190;2022-07-05T07:34:40;100122.88;;;24.69;18.71
54122;BME280;40029;58.708;50.190;2022-07-05T07:37:11;100122.59;;;24.73;18.44
54122;BME280;40029;58.708;50.190;2022-07-05T07:39:44;100133.53;;;24.69;17.64
54122;BME280;40029;58.708;50.190;2022-07-05T07:42:15;100129.03;;;24.70;18.08
54122;BME280;40029;58.708;50.190;2022-07-05T07:44:46;100109.41;;;24.61;18.10
54122;BME280;40029;58.708;50.190;2022-07-05T07:47:17;100136.06;;;24.81;18.49
54122;BME280;40029;58.708;50.190;2022-07-05T07:49:48;100072.69;;;24.55;18.07
54122;BME280;40029;58.708;50.190;2022-07-05T07:52:19;100109.94;;;24.84;17.73
54122;BME280;40029;58.708;50.190;2022-07-05T07:54:50;100110.78;;;24.85;18.40
54122;BME280;40029;58.708;50.190;2022-07-05T07:57:21;100089.63;;;24.54;18.20
54122;BME280;40029;58.708;50.190;2022-07-05T07:59:52;100111.50;;;24.67;18.56
54122;BME280;40029;58.708;50.190;2022-07-05T08:02:23;100106.47;;;24.64;17.90
54122;BME280;40029;58.708;50.190;2022-07-05T08:04:54;100112.78;;;24.83;18.19
54122;BME280;40029;58.708;50.190;2022-07-05T08:07:26;100099.16;;;24.86;18.07
54122;BME280;40029;58.708;50.190;2022-07-05T08:09:57;100110.25;;;24.91;18.01
54122;BME280;40029;58.708;50.190;2022-07-05T08:12:28;100094.94;;;24.83;17.76
54122;BME280;40029;58.708;50.190;2022-07-05T08:14:59;100108.97;;;24.95;16.91
54122;BME280;40029;58.708;50.190;2022-07-05T08:17:30;100104.03;;;25.00;17.16
54122;BME280;40029;58.708;50.190;2022-07-05T08:20:01;100098.44;;;25.03;17.28
54122;BME280;40029;58.708;50.190;2022-07-05T08:22:50;100098.44;;;25.13;16.84
54122;BME280;40029;58.708;50.190;2022-07-05T08:25:21;100100.41;;;25.21;16.98
54122;BME280;40029;58.708;50.190;2022-07-05T08:27:52;100070.09;;;25.12;16.94
54122;BME280;40029;58.708;50.190;2022-07-05T08:30:23;100093.06;;;25.32;17.64
54122;BME280;40029;58.708;50.190;2022-07-05T08:32:54;100105.53;;;25.41;17.07
54122;BME280;40029;58.708;50.190;2022-07-05T08:35:25;100098.94;;;25.36;16.82
54122;BME280;40029;58.708;50.190;2022-07-05T08:37:56;100099.03;;;25.54;17.43
54122;BME280;40029;58.708;50.190;2022-07-05T08:40:29;100092.69;;;25.55;16.41
54122;BME280;40029;58.708;50.190;2022-07-05T08:43:02;100101.16;;;25.50;16.40
54122;BME280;40029;58.708;50.190;2022-07-05T08:45:37;100098.28;;;25.61;16.50
54122;BME280;40029;58.708;50.190;2022-07-05T08:48:10;100098.28;;;25.61;16.70
54122;BME280;40029;58.708;50.190;2022-07-05T08:50:41;100097.69;;;25.67;16.85
54122;BME280;40029;58.708;50.190;2022-07-05T08:53:20;100092.59;;;25.84;16.72
54122;BME280;40029;58.708;50.190;2022-07-05T08:55:52;100097.81;;;25.76;16.90
54122;BME280;40029;58.708;50.190;2022-07-05T08:58:23;100100.06;;;25.80;16.75
54122;BME280;40029;58.708;50.190;2022-07-05T09:00:54;100083.88;;;25.82;16.45
54122;BME280;40029;58.708;50.190;2022-07-05T09:03:32;100087.38;;;25.92;16.83
54122;BME280;40029;58.708;50.190;2022-07-05T09:06:08;100098.81;;;26.02;15.88
54122;BME280;40029;58.708;50.190;2022-07-05T09:08:40;100093.88;;;26.07;15.24
54122;BME280;40029;58.708;50.190;2022-07-05T09:11:13;100093.94;;;26.15;15.62
54122;BME280;40029;58.708;50.190;2022-07-05T09:13:51;100090.81;;;26.20;15.06
54122;BME280;40029;58.708;50.190;2022-07-05T09:16:23;100085.34;;;26.22;14.99
54122;BME280;40029;58.708;50.190;2022-07-05T09:18:54;100081.50;;;26.06;16.01
54122;BME280;40029;58.708;50.190;2022-07-05T09:21:27;100081.59;;;26.14;15.98
54122;BME280;40029;58.708;50.190;2022-07-05T09:24:01;100089.78;;;26.31;15.56
54122;BME280;40029;58.708;50.190;2022-07-05T09:29:10;100080.78;;;26.50;15.95
54122;BME280;40029;58.708;50.190;2022-07-05T09:31:43;100073.50;;;26.42;15.42
54122;BME280;40029;58.708;50.190;2022-07-05T09:34:19;100068.59;;;26.47;15.96
54122;BME280;40029;58.708;50.190;2022-07-05T09:36:52;100065.09;;;26.47;16.64
54122;BME280;40029;58.708;50.190;2022-07-05T09:44:53;100052.56;;;26.47;14.71
54122;BME280;40029;58.708;50.190;2022-07-05T09:47:27;100064.84;;;26.58;15.50
54122;BME280;40029;58.708;50.190;2022-07-05T09:49:59;100066.94;;;26.36;14.63
54122;BME280;40029;58.708;50.190;2022-07-05T09:52:39;100064.63;;;26.51;14.77
54122;BME280;40029;58.708;50.190;2022-07-05T09:55:15;100059.59;;;26.48;15.47
54122;BME280;40029;58.708;50.190;2022-07-05T09:57:47;100067.97;;;26.53;14.93
54122;BME280;40029;58.708;50.190;2022-07-05T10:00:19;100057.34;;;26.61;15.14
54122;BME280;40029;58.708;50.190;2022-07-05T10:02:53;100055.06;;;26.66;15.33
54122;BME280;40029;58.708;50.190;2022-07-05T10:05:30;100066.06;;;26.63;14.74
54122;BME280;40029;58.708;50.190;2022-07-05T10:08:02;100041.31;;;26.61;14.94
54122;BME280;40029;58.708;50.190;2022-07-05T10:10:32;100020.56;;;26.55;14.19
54122;BME280;40029;58.708;50.190;2022-07-05T10:13:04;100050.31;;;26.78;13.74
54122;BME280;40029;58.708;50.190;2022-07-05T10:15:36;100032.78;;;26.84;12.69
54122;BME280;40029;58.708;50.190;2022-07-05T10:18:09;100034.53;;;26.93;12.63
54122;BME280;40029;58.708;50.190;2022-07-05T10:20:44;100039.13;;;26.83;12.88
54122;BME280;40029;58.708;50.190;2022-07-05T10:23:19;100032.97;;;26.82;13.47
54122;BME280;40029;58.708;50.190;2022-07-05T10:25:50;100035.56;;;27.00;13.41
54122;BME280;40029;58.708;50.190;2022-07-05T10:28:21;100011.41;;;26.84;14.94
54122;BME280;40029;58.708;50.190;2022-07-05T10:30:54;100023.75;;;27.03;14.17
54122;BME280;40029;58.708;50.190;2022-07-05T10:33:25;100028.84;;;27.14;13.54
54122;BME280;40029;58.708;50.190;2022-07-05T10:35:58;100022.22;;;27.26;13.63
54122;BME280;40029;58.708;50.190;2022-07-05T10:38:30;100015.22;;;27.33;13.94
54122;BME280;40029;58.708;50.190;2022-07-05T10:41:03;100007.94;;;27.52;13.93
54122;BME280;40029;58.708;50.190;2022-07-05T10:43:35;100019.47;;;27.52;13.77
54122;BME280;40029;58.708;50.190;2022-07-05T10:46:06;100006.28;;;27.51;13.75
54122;BME280;40029;58.708;50.190;2022-07-05T10:48:40;100015.38;;;27.66;13.78
54122;BME280;40029;58.708;50.190;2022-07-05T10:56:14;100018.28;;;27.89;12.55
54122;BME280;40029;58.708;50.190;2022-07-05T10:58:46;100025.97;;;27.76;13.26
54122;BME280;40029;58.708;50.190;2022-07-05T11:04:06;100020.78;;;27.74;14.02
54122;BME280;40029;58.708;50.190;2022-07-05T11:12:04;100000.22;;;27.83;13.64
54122;BME280;40029;58.708;50.190;2022-07-05T11:14:36;100009.59;;;28.03;13.61
54122;BME280;40029;58.708;50.190;2022-07-05T11:20:15;100003.31;;;28.37;12.89
54122;BME280;40029;58.708;50.190;2022-07-05T11:23:08;99995.25;;;28.70;12.58
54122;BME280;40029;58.708;50.190;2022-07-05T11:25:41;99995.75;;;28.73;12.99
54122;BME280;40029;58.708;50.190;2022-07-05T11:28:21;99989.84;;;28.94;12.80
54122;BME280;40029;58.708;50.190;2022-07-05T11:30:59;99995.47;;;29.32;12.26
54122;BME280;40029;58.708;50.190;2022-07-05T11:33:37;99987.97;;;29.89;11.38
54122;BME280;40029;58.708;50.190;2022-07-05T11:36:21;99985.72;;;30.85;9.42
54122;BME280;40029;58.708;50.190;2022-07-05T11:39:12;99986.22;;;32.05;8.15
54122;BME280;40029;58.708;50.190;2022-07-05T11:41:46;99982.69;;;33.04;8.21
54122;BME280;40029;58.708;50.190;2022-07-05T11:44:18;99988.66;;;33.89;7.31
54122;BME280;40029;58.708;50.190;2022-07-05T11:46:49;99982.53;;;34.48;6.36
54122;BME280;40029;58.708;50.190;2022-07-05T11:49:22;99978.28;;;35.12;5.87
54122;BME280;40029;58.708;50.190;2022-07-05T11:51:58;99972.09;;;35.56;5.43
54122;BME280;40029;58.708;50.190;2022-07-05T11:54:32;99977.28;;;35.64;5.37
54122;BME280;40029;58.708;50.190;2022-07-05T11:57:08;99982.28;;;35.92;4.86
54122;BME280;40029;58.708;50.190;2022-07-05T11:59:40;99977.53;;;35.88;4.65
54122;BME280;40029;58.708;50.190;2022-07-05T12:02:11;99970.00;;;35.96;4.05
54122;BME280;40029;58.708;50.190;2022-07-05T12:05:00;99963.97;;;36.19;3.60
54122;BME280;40029;58.708;50.190;2022-07-05T12:07:34;99969.78;;;36.54;4.26
54122;BME280;40029;58.708;50.190;2022-07-05T12:10:05;99962.91;;;36.52;3.69
54122;BME280;40029;58.708;50.190;2022-07-05T12:13:03;99966.66;;;36.94;4.41
54122;BME280;40029;58.708;50.190;2022-07-05T12:15:35;99956.53;;;36.83;4.68
54122;BME280;40029;58.708;50.190;2022-07-05T12:18:08;99953.22;;;36.81;3.91
54122;BME280;40029;58.708;50.190;2022-07-05T12:20:39;99953.94;;;36.51;4.04
54122;BME280;40029;58.708;50.190;2022-07-05T12:23:10;99946.56;;;36.34;4.40
54122;BME280;40029;58.708;50.190;2022-07-05T12:25:41;99944.97;;;36.51;4.02
54122;BME280;40029;58.708;50.190;2022-07-05T12:28:12;99939.69;;;36.56;4.15
54122;BME280;40029;58.708;50.190;2022-07-05T12:30:44;99941.81;;;36.91;3.16
54122;BME280;40029;58.708;50.190;2022-07-05T12:33:20;99944.66;;;37.39;3.50
54122;BME280;40029;58.708;50.190;2022-07-05T12:35:51;99936.03;;;37.24;3.65
54122;BME280;40029;58.708;50.190;2022-07-05T12:38:22;99931.00;;;37.09;2.80
54122;BME280;40029;58.708;50.190;2022-07-05T12:40:59;99926.75;;;37.13;2.87
54122;BME280;40029;58.708;50.190;2022-07-05T12:43:30;99919.03;;;37.28;2.46
54122;BME280;40029;58.708;50.190;2022-07-05T12:46:05;99931.88;;;37.40;3.33
54122;BME280;40029;58.708;50.190;2022-07-05T12:48:37;99914.16;;;37.19;2.75
54122;BME280;40029;58.708;50.190;2022-07-05T12:51:10;99922.75;;;36.79;3.38
54122;BME280;40029;58.708;50.190;2022-07-05T12:53:48;99916.69;;;36.59;2.76
54122;BME280;40029;58.708;50.190;2022-07-05T12:56:38;99877.34;;;36.49;3.44
54122;BME280;40029;58.708;50.190;2022-07-05T12:59:27;99900.22;;;36.97;3.32
54122;BME280;40029;58.708;50.190;2022-07-05T13:01:58;99895.31;;;37.06;3.62
54122;BME280;40029;58.708;50.190;2022-07-05T13:04:30;99898.50;;;37.33;3.55
54122;BME280;40029;58.708;50.190;2022-07-05T13:07:02;99901.81;;;37.05;3.42
54122;BME280;40029;58.708;50.190;2022-07-05T13:09:35;99902.84;;;37.34;2.69
54122;BME280;40029;58.708;50.190;2022-07-05T13:12:17;99899.13;;;37.65;2.47
54122;BME280;40029;58.708;50.190;2022-07-05T13:14:55;99900.09;;;37.40;3.93
54122;BME280;40029;58.708;50.190;2022-07-05T13:17:26;99895.72;;;37.21;3.50
54122;BME280;40029;58.708;50.190;2022-07-05T13:19:57;99894.22;;;36.88;3.34
54122;BME280;40029;58.708;50.190;2022-07-05T13:22:28;99864.47;;;36.38;3.82
54122;BME280;40029;58.708;50.190;2022-07-05T13:24:59;99881.50;;;36.70;3.44
54122;BME280;40029;58.708;50.190;2022-07-05T13:27:30;99878.84;;;36.64;3.75
54122;BME280;40029;58.708;50.190;2022-07-05T13:30:02;99888.34;;;36.54;4.22
54122;BME280;40029;58.708;50.190;2022-07-05T13:32:34;99884.78;;;36.91;4.62
54122;BME280;40029;58.708;50.190;2022-07-05T13:35:05;99891.47;;;37.25;3.50
54122;BME280;40029;58.708;50.190;2022-07-05T13:37:36;99862.75;;;37.17;3.13
54122;BME280;40029;58.708;50.190;2022-07-05T13:40:08;99864.91;;;37.27;3.73